Time;durP1;ratioP1;P1;durP2;ratioP2;P2;SDS_P1;SDS_P2;PMS_P1;PMS_P2;Temp;Humidity;BMP_temperature;BMP_pressure;BME280_temperature;BME280_humidity;BME280_pressure;Samples;Min_cycle;Max_cycle;Signal;HPM_P1;HPM_P2
2021/12/28 00:00:26;;;;;;;3.22;1.48;;;;;;;;;;4937182;29;20387;-91
2021/12/28 00:02:54;;;;;;;5.25;1.10;;;;;;;;;;4915550;29;20080;-87
2021/12/28 00:05:20;;;;;;;4.30;1.58;;;;;;;;;;4941003;29;20194;-89
2021/12/28 00:07:46;;;;;;;5.38;1.42;;;;;;;;;;4939098;29;20031;-87
2021/12/28 00:10:13;;;;;;;4.15;1.63;;;;;;;;;;4954410;29;20421;-88
2021/12/28 00:12:39;;;;;;;3.30;1.42;;;;;;;;;;4939948;29;20103;-87
2021/12/28 00:17:59;;;;;;;4.90;1.45;;;;;;;;;;4942399;29;20122;-88
2021/12/28 00:20:29;;;;;;;6.90;1.85;;;;;;;;;;4939280;29;20044;-89
2021/12/28 00:22:54;;;;;;;6.00;1.42;;;;;;;;;;4941079;29;20454;-88
2021/12/28 00:25:20;;;;;;;5.68;1.52;;;;;;;;;;4944023;29;20032;-89
2021/12/28 00:27:45;;;;;;;8.02;1.33;;;;;;;;;;4939619;29;20524;-87
2021/12/28 00:30:11;;;;;;;5.65;1.30;;;;;;;;;;4940272;29;20058;-88
2021/12/28 00:32:37;;;;;;;5.15;1.52;;;;;;;;;;4939112;29;20027;-88
2021/12/28 00:35:04;;;;;;;5.47;1.40;;;;;;;;;;4931678;29;20020;-89
2021/12/28 00:37:30;;;;;;;8.25;1.80;;;;;;;;;;4937944;29;20020;-87
2021/12/28 00:39:55;;;;;;;7.97;1.95;;;;;;;;;;4921197;29;20035;-88
2021/12/28 00:42:20;;;;;;;10.82;1.67;;;;;;;;;;4940188;29;20159;-88
2021/12/28 00:44:46;;;;;;;7.25;2.10;;;;;;;;;;4939269;29;20474;-88
2021/12/28 00:47:12;;;;;;;12.07;1.80;;;;;;;;;;4953134;29;20084;-88
2021/12/28 00:49:37;;;;;;;9.27;2.13;;;;;;;;;;4924040;29;20027;-88
2021/12/28 00:52:03;;;;;;;11.43;2.15;;;;;;;;;;4925347;29;20031;-88
2021/12/28 00:54:28;;;;;;;10.80;1.85;;;;;;;;;;4940809;29;20051;-87
2021/12/28 00:56:53;;;;;;;9.25;1.92;;;;;;;;;;4938585;29;20143;-86
2021/12/28 00:59:19;;;;;;;6.97;1.67;;;;;;;;;;4926330;29;20062;-87
2021/12/28 01:01:44;;;;;;;5.90;2.15;;;;;;;;;;4913786;29;20024;-88
2021/12/28 01:04:10;;;;;;;4.60;1.75;;;;;;;;;;4921925;29;20034;-88
2021/12/28 01:06:35;;;;;;;9.02;1.77;;;;;;;;;;4939735;29;20482;-88
2021/12/28 01:09:01;;;;;;;10.93;1.80;;;;;;;;;;4921333;29;20434;-88
2021/12/28 01:11:26;;;;;;;11.25;2.10;;;;;;;;;;4938827;29;20048;-87
2021/12/28 01:13:51;;;;;;;8.07;2.05;;;;;;;;;;4937537;29;20065;-87
2021/12/28 01:16:18;;;;;;;10.82;2.13;;;;;;;;;;4967036;23;20130;-87
2021/12/28 01:18:44;;;;;;;7.40;2.03;;;;;;;;;;4971381;28;20031;-88
2021/12/28 01:21:10;;;;;;;9.77;1.50;;;;;;;;;;4977671;28;20035;-87
2021/12/28 01:23:36;;;;;;;11.27;2.10;;;;;;;;;;4974070;28;20149;-88
2021/12/28 01:26:02;;;;;;;4.57;1.55;;;;;;;;;;4977848;28;20060;-86
2021/12/28 01:28:28;;;;;;;14.88;2.30;;;;;;;;;;4981425;28;20082;-90
2021/12/28 01:30:53;;;;;;;8.07;2.10;;;;;;;;;;4966559;28;20061;-87
2021/12/28 01:33:19;;;;;;;15.52;2.30;;;;;;;;;;4981168;28;20397;-88
2021/12/28 01:39:07;;;;;;;10.70;1.63;;;;;;;;;;4981818;28;20038;-88
2021/12/28 01:41:33;;;;;;;8.98;1.63;;;;;;;;;;4979620;28;20034;-88
2021/12/28 01:44:04;;;;;;;14.70;1.90;;;;;;;;;;4981086;28;20031;-87
2021/12/28 01:46:30;;;;;;;8.40;2.00;;;;;;;;;;4976776;28;20481;-86
2021/12/28 01:48:55;;;;;;;7.22;1.90;;;;;;;;;;4983304;28;20035;-88
2021/12/28 01:51:23;;;;;;;10.10;1.65;;;;;;;;;;4983692;28;20014;-86
2021/12/28 01:53:51;;;;;;;5.78;1.52;;;;;;;;;;4985547;28;20393;-88
2021/12/28 01:56:27;;;;;;;9.63;1.80;;;;;;;;;;4973559;28;20027;-87
2021/12/28 01:58:54;;;;;;;6.70;1.50;;;;;;;;;;4979515;28;20029;-86
2021/12/28 02:01:19;;;;;;;3.92;1.25;;;;;;;;;;4981087;28;20489;-89
2021/12/28 02:03:46;;;;;;;10.23;1.75;;;;;;;;;;4979777;28;20054;-88
2021/12/28 02:06:11;;;;;;;6.00;1.60;;;;;;;;;;4962781;28;20038;-88
2021/12/28 02:08:38;;;;;;;6.85;1.90;;;;;;;;;;4981087;28;20027;-89
2021/12/28 02:11:05;;;;;;;12.95;2.47;;;;;;;;;;4982110;28;20045;-88
2021/12/28 02:13:30;;;;;;;8.05;1.73;;;;;;;;;;4980905;28;20023;-89
2021/12/28 02:15:57;;;;;;;6.82;1.83;;;;;;;;;;4988632;28;20038;-87
2021/12/28 02:18:24;;;;;;;7.65;1.75;;;;;;;;;;4970098;28;20042;-88
2021/12/28 02:20:51;;;;;;;8.68;2.13;;;;;;;;;;4963946;28;20084;-86
2021/12/28 02:23:17;;;;;;;8.75;2.15;;;;;;;;;;4960223;28;20030;-88
2021/12/28 02:25:44;;;;;;;2.92;1.58;;;;;;;;;;4981083;28;20029;-89
2021/12/28 02:28:11;;;;;;;9.98;1.92;;;;;;;;;;4976042;28;20030;-89
2021/12/28 02:30:39;;;;;;;12.07;2.22;;;;;;;;;;4981880;28;20481;-87
2021/12/28 02:33:06;;;;;;;5.80;1.83;;;;;;;;;;4981203;28;20057;-86
2021/12/28 02:35:32;;;;;;;6.15;1.80;;;;;;;;;;4973556;28;20479;-89
2021/12/28 02:37:57;;;;;;;6.97;2.00;;;;;;;;;;4980193;28;20027;-88
2021/12/28 02:40:28;;;;;;;6.47;2.00;;;;;;;;;;4963137;28;20034;-89
2021/12/28 02:42:56;;;;;;;11.27;1.85;;;;;;;;;;4980726;28;20038;-88
2021/12/28 02:45:26;;;;;;;5.80;2.05;;;;;;;;;;4979901;28;20082;-88
2021/12/28 02:47:52;;;;;;;11.63;1.88;;;;;;;;;;4980383;28;20018;-89
2021/12/28 02:50:22;;;;;;;9.27;1.85;;;;;;;;;;4980258;28;20019;-88
2021/12/28 02:52:47;;;;;;;7.57;1.85;;;;;;;;;;4981047;28;20019;-88
2021/12/28 02:55:16;;;;;;;11.15;1.83;;;;;;;;;;4980226;28;20106;-88
2021/12/28 02:58:15;;;;;;;6.07;1.90;;;;;;;;;;4963447;28;20121;-86
2021/12/28 03:00:40;;;;;;;7.60;1.75;;;;;;;;;;4950801;28;20424;-88
2021/12/28 03:03:18;;;;;;;7.32;1.85;;;;;;;;;;4982923;28;20022;-88
2021/12/28 03:05:46;;;;;;;8.15;2.35;;;;;;;;;;4983815;28;20088;-88
2021/12/28 03:08:13;;;;;;;6.93;2.13;;;;;;;;;;4967193;28;20031;-88
2021/12/28 03:10:41;;;;;;;13.63;2.47;;;;;;;;;;4968572;28;20033;-88
2021/12/28 03:13:08;;;;;;;14.15;1.98;;;;;;;;;;4974534;28;20038;-88
2021/12/28 03:15:34;;;;;;;8.55;1.80;;;;;;;;;;4969515;28;20506;-87
2021/12/28 03:17:59;;;;;;;8.07;1.73;;;;;;;;;;4965297;28;20042;-86
2021/12/28 03:20:25;;;;;;;12.88;2.42;;;;;;;;;;4963603;28;20050;-89
2021/12/28 03:22:50;;;;;;;6.80;1.80;;;;;;;;;;4981892;28;20037;-88
2021/12/28 03:25:16;;;;;;;7.35;1.58;;;;;;;;;;4980029;28;20057;-87
2021/12/28 03:27:42;;;;;;;11.98;2.47;;;;;;;;;;4960573;28;20030;-87
2021/12/28 03:30:11;;;;;;;6.20;1.85;;;;;;;;;;4962289;28;20037;-89
2021/12/28 03:32:37;;;;;;;6.05;1.70;;;;;;;;;;4973420;28;20354;-89
2021/12/28 03:35:04;;;;;;;10.65;2.38;;;;;;;;;;4979270;28;20493;-89
2021/12/28 03:37:31;;;;;;;8.20;1.90;;;;;;;;;;4962893;28;20090;-88
2021/12/28 03:39:58;;;;;;;9.02;1.92;;;;;;;;;;4980633;28;20042;-87
2021/12/28 03:42:24;;;;;;;10.32;1.67;;;;;;;;;;4981326;28;20030;-88
2021/12/28 03:44:49;;;;;;;6.13;1.80;;;;;;;;;;4979096;28;20023;-88
2021/12/28 03:47:14;;;;;;;11.00;2.47;;;;;;;;;;4980800;28;20033;-86
2021/12/28 03:49:40;;;;;;;11.85;2.28;;;;;;;;;;4967935;28;20530;-89
2021/12/28 03:52:06;;;;;;;10.07;2.33;;;;;;;;;;4961542;28;20026;-87
2021/12/28 03:54:33;;;;;;;9.48;2.00;;;;;;;;;;4979616;28;20030;-88
2021/12/28 03:56:58;;;;;;;11.15;1.90;;;;;;;;;;4962850;28;20047;-88
2021/12/28 03:59:24;;;;;;;8.00;1.52;;;;;;;;;;4980026;28;20478;-88
2021/12/28 04:01:49;;;;;;;6.05;1.88;;;;;;;;;;4979862;28;20038;-87
2021/12/28 04:04:15;;;;;;;6.78;1.85;;;;;;;;;;4986696;28;20481;-88
2021/12/28 04:06:40;;;;;;;10.38;1.73;;;;;;;;;;4961964;28;20073;-87
2021/12/28 04:09:07;;;;;;;13.35;2.10;;;;;;;;;;4961167;28;20065;-87
2021/12/28 04:11:33;;;;;;;8.27;1.65;;;;;;;;;;4979770;28;20618;-88
2021/12/28 04:14:02;;;;;;;9.18;1.75;;;;;;;;;;4978794;28;20042;-87
2021/12/28 04:16:29;;;;;;;6.55;1.67;;;;;;;;;;4994435;28;20061;-88
2021/12/28 04:18:54;;;;;;;5.93;1.33;;;;;;;;;;4978314;28;20026;-88
2021/12/28 04:21:20;;;;;;;5.90;1.58;;;;;;;;;;4978296;28;20396;-88
2021/12/28 04:23:46;;;;;;;12.32;3.00;;;;;;;;;;4987003;28;20129;-88
2021/12/28 04:26:11;;;;;;;12.48;2.20;;;;;;;;;;4990741;28;20021;-87
2021/12/28 04:28:37;;;;;;;3.88;1.45;;;;;;;;;;4981530;28;20023;-87
2021/12/28 04:31:03;;;;;;;9.65;1.77;;;;;;;;;;4980593;28;20031;-88
2021/12/28 04:33:28;;;;;;;4.93;1.50;;;;;;;;;;4982385;28;20014;-87
2021/12/28 04:35:54;;;;;;;3.83;1.65;;;;;;;;;;4964289;28;20038;-88
2021/12/28 04:38:19;;;;;;;5.18;2.10;;;;;;;;;;4972715;28;20039;-87
2021/12/28 04:40:45;;;;;;;4.85;1.77;;;;;;;;;;4979875;28;20081;-88
2021/12/28 04:43:12;;;;;;;8.87;1.70;;;;;;;;;;4960811;28;20026;-88
2021/12/28 04:45:38;;;;;;;9.88;1.67;;;;;;;;;;4979671;28;20421;-88
2021/12/28 04:48:05;;;;;;;8.02;1.70;;;;;;;;;;4978199;28;20030;-88
2021/12/28 04:50:37;;;;;;;4.80;1.65;;;;;;;;;;4979120;28;20022;-88
2021/12/28 04:53:10;;;;;;;8.35;1.70;;;;;;;;;;4973970;28;20085;-87
2021/12/28 04:55:41;;;;;;;5.88;1.90;;;;;;;;;;4977559;28;20031;-88
2021/12/28 04:58:07;;;;;;;6.40;1.73;;;;;;;;;;4978369;28;20061;-89
2021/12/28 05:00:35;;;;;;;3.28;1.50;;;;;;;;;;4960727;28;20045;-87
2021/12/28 05:03:00;;;;;;;7.63;1.67;;;;;;;;;;4977015;28;20033;-85
2021/12/28 05:05:26;;;;;;;6.00;2.30;;;;;;;;;;4960112;28;20027;-88
2021/12/28 05:07:53;;;;;;;6.65;1.75;;;;;;;;;;4960765;28;20027;-88
2021/12/28 05:10:18;;;;;;;6.25;1.90;;;;;;;;;;4980823;28;20029;-88
2021/12/28 05:12:44;;;;;;;4.40;1.48;;;;;;;;;;4982853;28;20481;-88
2021/12/28 05:15:10;;;;;;;6.40;1.63;;;;;;;;;;4962929;28;20054;-86
2021/12/28 05:17:36;;;;;;;5.10;1.48;;;;;;;;;;4964381;28;20094;-87
2021/12/28 05:20:03;;;;;;;6.50;2.03;;;;;;;;;;4980943;28;20035;-86
2021/12/28 05:22:28;;;;;;;8.27;1.90;;;;;;;;;;4980271;28;20042;-87
2021/12/28 05:24:54;;;;;;;6.75;1.73;;;;;;;;;;4987084;28;20102;-87
2021/12/28 05:27:19;;;;;;;7.45;1.70;;;;;;;;;;4979077;28;20085;-86
2021/12/28 05:29:44;;;;;;;3.80;1.73;;;;;;;;;;4974767;28;20486;-86
2021/12/28 05:32:10;;;;;;;4.85;1.73;;;;;;;;;;4977088;28;20027;-87
2021/12/28 05:34:35;;;;;;;6.07;1.85;;;;;;;;;;4973092;28;20015;-87
2021/12/28 05:37:01;;;;;;;8.40;2.20;;;;;;;;;;4975740;28;20023;-85
2021/12/28 05:39:26;;;;;;;9.30;1.88;;;;;;;;;;4976643;28;20055;-88
2021/12/28 05:41:52;;;;;;;7.45;1.70;;;;;;;;;;4978290;28;20054;-87
2021/12/28 05:44:18;;;;;;;5.35;1.63;;;;;;;;;;4976428;28;20470;-87
2021/12/28 05:46:45;;;;;;;3.65;1.60;;;;;;;;;;4978078;28;20097;-88
2021/12/28 05:49:10;;;;;;;4.72;1.50;;;;;;;;;;4975622;28;20023;-87
2021/12/28 05:51:36;;;;;;;7.28;2.42;;;;;;;;;;4964543;28;20486;-85
2021/12/28 05:54:01;;;;;;;7.15;1.90;;;;;;;;;;4957975;28;20019;-86
2021/12/28 05:56:27;;;;;;;9.77;1.50;;;;;;;;;;4981692;28;20043;-88
2021/12/28 05:58:52;;;;;;;8.55;2.45;;;;;;;;;;4979755;28;20102;-87
2021/12/28 06:01:18;;;;;;;4.03;1.65;;;;;;;;;;4975990;28;20501;-86
2021/12/28 06:03:43;;;;;;;5.60;1.70;;;;;;;;;;4977218;28;20119;-88
2021/12/28 06:06:09;;;;;;;6.00;2.10;;;;;;;;;;4977500;28;20033;-86
2021/12/28 06:08:34;;;;;;;6.88;1.83;;;;;;;;;;4959285;28;20031;-89
2021/12/28 06:10:59;;;;;;;6.72;2.03;;;;;;;;;;4977272;28;20038;-88
2021/12/28 06:13:25;;;;;;;8.60;1.85;;;;;;;;;;4976045;28;20030;-88
2021/12/28 06:15:50;;;;;;;7.22;1.55;;;;;;;;;;4960394;28;20038;-88
2021/12/28 06:18:16;;;;;;;3.75;1.50;;;;;;;;;;4976953;28;20055;-86
2021/12/28 06:20:41;;;;;;;10.82;2.20;;;;;;;;;;4976887;28;20511;-86
2021/12/28 06:23:07;;;;;;;6.03;1.88;;;;;;;;;;4979598;28;20433;-87
2021/12/28 06:25:33;;;;;;;6.97;2.03;;;;;;;;;;4980827;28;20029;-87
2021/12/28 06:27:59;;;;;;;4.82;1.55;;;;;;;;;;4981074;28;20029;-86
2021/12/28 06:30:24;;;;;;;6.22;1.77;;;;;;;;;;4974967;28;20022;-87
2021/12/28 06:32:50;;;;;;;4.00;1.98;;;;;;;;;;4980218;28;20030;-87
2021/12/28 06:35:15;;;;;;;4.55;1.70;;;;;;;;;;4970775;28;20022;-87
2021/12/28 06:37:41;;;;;;;6.18;1.60;;;;;;;;;;4980570;28;20438;-83
2021/12/28 06:40:07;;;;;;;5.55;1.70;;;;;;;;;;4963107;28;20041;-88
2021/12/28 06:42:32;;;;;;;9.63;2.13;;;;;;;;;;4980675;28;20031;-85
2021/12/28 06:44:58;;;;;;;3.97;1.70;;;;;;;;;;4962348;28;20118;-86
2021/12/28 06:47:24;;;;;;;3.50;1.55;;;;;;;;;;4962539;28;20033;-87
2021/12/28 06:49:49;;;;;;;6.25;1.90;;;;;;;;;;4981055;28;20038;-86
2021/12/28 06:52:15;;;;;;;2.33;1.35;;;;;;;;;;4971359;28;20073;-90
2021/12/28 06:54:41;;;;;;;4.35;1.40;;;;;;;;;;4979623;28;20037;-89
2021/12/28 06:57:08;;;;;;;1.52;1.20;;;;;;;;;;4979118;28;20050;-88
2021/12/28 06:59:37;;;;;;;5.93;1.20;;;;;;;;;;4979809;28;20018;-87
2021/12/28 07:02:04;;;;;;;2.88;1.00;;;;;;;;;;4980443;28;20022;-89
2021/12/28 07:04:29;;;;;;;6.18;1.30;;;;;;;;;;4979875;28;20064;-88
2021/12/28 07:06:54;;;;;;;1.33;0.82;;;;;;;;;;4963046;28;20023;-88
2021/12/28 07:09:20;;;;;;;3.90;1.50;;;;;;;;;;4980124;28;20788;-85
2021/12/28 07:11:46;;;;;;;2.72;0.95;;;;;;;;;;4974777;28;20037;-87
2021/12/28 07:14:12;;;;;;;3.25;1.05;;;;;;;;;;4979810;28;20026;-88
2021/12/28 07:16:37;;;;;;;1.85;0.98;;;;;;;;;;4962572;28;20031;-89
2021/12/28 07:19:03;;;;;;;1.50;1.00;;;;;;;;;;4972365;28;20074;-89
2021/12/28 07:21:28;;;;;;;1.30;1.20;;;;;;;;;;4977133;28;20046;-90
2021/12/28 07:23:54;;;;;;;1.38;0.95;;;;;;;;;;4979060;28;20023;-88
2021/12/28 07:26:19;;;;;;;2.03;1.08;;;;;;;;;;4981418;28;20015;-88
2021/12/28 07:28:44;;;;;;;1.20;0.90;;;;;;;;;;4982697;28;20109;-88
2021/12/28 07:31:10;;;;;;;2.67;1.10;;;;;;;;;;4980296;28;20023;-88
2021/12/28 07:33:35;;;;;;;0.90;0.90;;;;;;;;;;4961590;28;20058;-87
2021/12/28 07:36:00;;;;;;;1.45;0.95;;;;;;;;;;4979789;28;20022;-88
2021/12/28 07:38:29;;;;;;;2.47;0.85;;;;;;;;;;4966805;28;20028;-88
2021/12/28 07:40:54;;;;;;;0.93;0.93;;;;;;;;;;4962083;28;20026;-87
2021/12/28 07:43:19;;;;;;;0.68;0.65;;;;;;;;;;4977884;28;20435;-87
2021/12/28 07:45:46;;;;;;;3.83;1.13;;;;;;;;;;4952421;28;20027;-86
2021/12/28 07:48:11;;;;;;;1.20;0.88;;;;;;;;;;4978615;28;20018;-88
2021/12/28 07:50:37;;;;;;;0.68;0.68;;;;;;;;;;4978934;28;20073;-88
2021/12/28 07:53:02;;;;;;;1.20;1.10;;;;;;;;;;4980973;28;20023;-86
2021/12/28 07:55:28;;;;;;;1.70;0.90;;;;;;;;;;4979114;28;20020;-87
2021/12/28 07:57:53;;;;;;;4.38;1.15;;;;;;;;;;4977410;28;20061;-88
2021/12/28 08:00:19;;;;;;;1.30;0.80;;;;;;;;;;4980396;28;20069;-86
2021/12/28 08:02:45;;;;;;;0.70;0.70;;;;;;;;;;4955859;28;20039;-87
2021/12/28 08:05:13;;;;;;;1.75;0.80;;;;;;;;;;4964731;28;20031;-86
2021/12/28 08:07:39;;;;;;;0.75;0.75;;;;;;;;;;4979396;28;20026;-88
2021/12/28 08:10:05;;;;;;;1.25;0.70;;;;;;;;;;4962361;28;20038;-87
2021/12/28 08:12:31;;;;;;;5.82;0.90;;;;;;;;;;4979621;28;20497;-88
2021/12/28 08:14:57;;;;;;;1.27;0.90;;;;;;;;;;4979253;28;20034;-89
2021/12/28 08:17:23;;;;;;;0.70;0.70;;;;;;;;;;4979331;28;20027;-88
2021/12/28 08:19:48;;;;;;;0.70;0.70;;;;;;;;;;4976869;28;20039;-89
2021/12/28 08:22:13;;;;;;;2.30;0.73;;;;;;;;;;4979003;28;20276;-88
2021/12/28 08:24:39;;;;;;;1.00;0.90;;;;;;;;;;4974820;28;20413;-88
2021/12/28 08:27:04;;;;;;;1.50;0.73;;;;;;;;;;4977550;28;20039;-88
2021/12/28 08:29:30;;;;;;;0.77;0.70;;;;;;;;;;4978995;28;20026;-88
2021/12/28 08:31:55;;;;;;;2.38;0.50;;;;;;;;;;4977891;28;20038;-88
2021/12/28 08:34:20;;;;;;;0.65;0.65;;;;;;;;;;4964092;28;20034;-86
2021/12/28 08:36:46;;;;;;;1.42;0.70;;;;;;;;;;4961187;28;20097;-88
2021/12/28 08:39:11;;;;;;;0.43;0.43;;;;;;;;;;4978301;28;20030;-89
2021/12/28 08:41:37;;;;;;;2.17;0.50;;;;;;;;;;4968956;28;20131;-88
2021/12/28 08:44:02;;;;;;;1.70;0.57;;;;;;;;;;4957196;28;20034;-86
2021/12/28 08:46:29;;;;;;;0.40;0.40;;;;;;;;;;4978851;28;20022;-88
2021/12/28 08:48:55;;;;;;;1.30;0.60;;;;;;;;;;4977623;28;20026;-86
2021/12/28 08:51:20;;;;;;;0.85;0.60;;;;;;;;;;4979278;28;20026;-88
2021/12/28 08:53:46;;;;;;;0.38;0.38;;;;;;;;;;4982985;28;20085;-86
2021/12/28 08:56:12;;;;;;;4.28;0.75;;;;;;;;;;4978458;28;20051;-85
2021/12/28 08:58:37;;;;;;;2.22;0.57;;;;;;;;;;4973703;28;20035;-87
2021/12/28 09:01:03;;;;;;;0.60;0.60;;;;;;;;;;4957854;28;20521;-87
2021/12/28 09:03:29;;;;;;;1.35;0.52;;;;;;;;;;4977028;28;20023;-87
2021/12/28 09:05:54;;;;;;;1.33;0.60;;;;;;;;;;4975785;28;20031;-88
2021/12/28 09:08:19;;;;;;;0.85;0.85;;;;;;;;;;4970116;28;20045;-88
2021/12/28 09:10:46;;;;;;;2.70;0.73;;;;;;;;;;4977011;28;20101;-88
2021/12/28 09:13:14;;;;;;;0.35;0.35;;;;;;;;;;4960956;28;20042;-86
2021/12/28 09:15:39;;;;;;;0.35;0.35;;;;;;;;;;4977355;28;20030;-89
2021/12/28 09:18:05;;;;;;;1.30;0.52;;;;;;;;;;4977082;28;20046;-89
2021/12/28 09:20:30;;;;;;;0.57;0.57;;;;;;;;;;4960402;28;20034;-89
2021/12/28 09:22:56;;;;;;;1.02;0.40;;;;;;;;;;4976573;28;20026;-88
2021/12/28 09:25:22;;;;;;;0.30;0.30;;;;;;;;;;4959030;28;20023;-86
2021/12/28 09:27:48;;;;;;;0.40;0.40;;;;;;;;;;4958448;28;20053;-87
2021/12/28 09:30:14;;;;;;;0.40;0.40;;;;;;;;;;4962810;28;20027;-89
2021/12/28 09:32:40;;;;;;;0.68;0.57;;;;;;;;;;4976016;28;20053;-87
2021/12/28 09:35:06;;;;;;;0.70;0.70;;;;;;;;;;4976575;28;20030;-88
2021/12/28 09:37:33;;;;;;;0.57;0.57;;;;;;;;;;4975671;28;20043;-88
2021/12/28 09:40:00;;;;;;;0.38;0.38;;;;;;;;;;4984044;28;20026;-87
2021/12/28 09:42:26;;;;;;;0.38;0.38;;;;;;;;;;4981620;28;20039;-88
2021/12/28 09:44:51;;;;;;;1.00;0.47;;;;;;;;;;4982011;28;20031;-87
2021/12/28 09:47:20;;;;;;;0.68;0.68;;;;;;;;;;4980521;28;20475;-86
2021/12/28 09:49:47;;;;;;;0.40;0.40;;;;;;;;;;4989728;28;20054;-87
2021/12/28 09:52:14;;;;;;;1.30;0.50;;;;;;;;;;4972487;28;20022;-86
2021/12/28 09:54:40;;;;;;;0.50;0.50;;;;;;;;;;4970791;28;20516;-87
2021/12/28 09:57:06;;;;;;;0.38;0.38;;;;;;;;;;4987589;28;20037;-87
2021/12/28 09:59:33;;;;;;;0.70;0.50;;;;;;;;;;4977118;28;20030;-88
2021/12/28 10:02:06;;;;;;;0.75;0.50;;;;;;;;;;4970215;28;20081;-90
2021/12/28 10:04:32;;;;;;;0.60;0.60;;;;;;;;;;4965328;28;20034;-90
2021/12/28 10:07:19;;;;;;;2.25;0.60;;;;;;;;;;4982734;28;20027;-91
2021/12/28 10:09:45;;;;;;;1.48;0.50;;;;;;;;;;4990934;28;20022;-89
2021/12/28 10:12:10;;;;;;;0.38;0.38;;;;;;;;;;4984684;28;20069;-85
2021/12/28 10:14:36;;;;;;;0.90;0.80;;;;;;;;;;4981476;28;20022;-91
2021/12/28 10:17:05;;;;;;;0.80;0.55;;;;;;;;;;4981981;28;20516;-89
2021/12/28 10:19:44;;;;;;;0.65;0.47;;;;;;;;;;4965673;28;20421;-86
2021/12/28 10:22:38;;;;;;;1.38;0.50;;;;;;;;;;4962810;28;20027;-88
2021/12/28 10:25:14;;;;;;;0.77;0.77;;;;;;;;;;4978477;28;20085;-89
2021/12/28 10:27:46;;;;;;;0.50;0.50;;;;;;;;;;4979829;28;20023;-90
2021/12/28 10:30:21;;;;;;;;;;;;;;;;;;4980959;28;20042;-87
2021/12/28 10:32:49;;;;;;;1.17;0.47;;;;;;;;;;4963226;28;19910;-88
2021/12/28 10:35:18;;;;;;;1.00;0.63;;;;;;;;;;4972310;28;20083;-88
2021/12/28 10:37:53;;;;;;;0.25;0.25;;;;;;;;;;4980272;28;20082;-86
2021/12/28 10:40:29;;;;;;;0.75;0.35;;;;;;;;;;4971239;28;20030;-86
2021/12/28 10:43:24;;;;;;;0.50;0.50;;;;;;;;;;4979622;28;20030;-85
2021/12/28 10:45:54;;;;;;;0.60;0.60;;;;;;;;;;4972462;28;20031;-85
2021/12/28 10:48:26;;;;;;;0.40;0.40;;;;;;;;;;4964326;28;20031;-88
2021/12/28 10:51:01;;;;;;;0.43;0.43;;;;;;;;;;4961786;28;20027;-88
2021/12/28 10:53:37;;;;;;;0.30;0.30;;;;;;;;;;4962833;28;20116;-88
2021/12/28 10:56:07;;;;;;;0.60;0.40;;;;;;;;;;4962451;28;20023;-85
2021/12/28 10:58:41;;;;;;;1.10;0.50;;;;;;;;;;4960862;28;20058;-87
2021/12/28 11:01:29;;;;;;;0.40;0.40;;;;;;;;;;4977229;28;20706;-89
2021/12/28 11:03:57;;;;;;;0.32;0.32;;;;;;;;;;4977091;28;20027;-89
2021/12/28 11:06:35;;;;;;;0.55;0.55;;;;;;;;;;4961881;28;20567;-89
2021/12/28 11:09:09;;;;;;;0.75;0.75;;;;;;;;;;4979364;28;20038;-89
2021/12/28 11:11:36;;;;;;;0.50;0.50;;;;;;;;;;4979781;28;20090;-89
2021/12/28 11:14:06;;;;;;;0.50;0.50;;;;;;;;;;4976643;28;20015;-85
2021/12/28 11:16:33;;;;;;;0.28;0.28;;;;;;;;;;4965980;28;20023;-87
2021/12/28 11:19:00;;;;;;;3.05;0.40;;;;;;;;;;4959993;28;20113;-88
2021/12/28 11:21:29;;;;;;;0.75;0.60;;;;;;;;;;4966613;28;20091;-86
2021/12/28 11:24:01;;;;;;;0.55;0.40;;;;;;;;;;4976068;28;20031;-88
2021/12/28 11:26:30;;;;;;;0.47;0.47;;;;;;;;;;4994314;28;20037;-86
2021/12/28 11:28:56;;;;;;;0.50;0.50;;;;;;;;;;4993341;28;20023;-87
2021/12/28 11:31:25;;;;;;;0.50;0.47;;;;;;;;;;4976585;28;20027;-87
2021/12/28 11:33:59;;;;;;;0.40;0.40;;;;;;;;;;4979893;28;20025;-86
2021/12/28 11:36:37;;;;;;;0.70;0.70;;;;;;;;;;4979401;28;20027;-88
2021/12/28 11:39:08;;;;;;;0.43;0.43;;;;;;;;;;4980946;28;21036;-89
2021/12/28 11:41:33;;;;;;;0.47;0.45;;;;;;;;;;4987316;28;20042;-85
2021/12/28 11:43:59;;;;;;;0.40;0.40;;;;;;;;;;4979555;28;20022;-88
2021/12/28 11:46:26;;;;;;;0.50;0.50;;;;;;;;;;4978200;28;20034;-86
2021/12/28 11:48:53;;;;;;;1.00;0.70;;;;;;;;;;4964868;28;20090;-89
2021/12/28 11:51:20;;;;;;;0.52;0.50;;;;;;;;;;4983736;28;20034;-85
2021/12/28 11:53:47;;;;;;;0.80;0.73;;;;;;;;;;4983414;28;20026;-85
2021/12/28 11:56:16;;;;;;;1.33;0.50;;;;;;;;;;4977632;28;20018;-88
2021/12/28 11:58:55;;;;;;;1.08;0.57;;;;;;;;;;4980736;28;20482;-88
2021/12/28 12:01:39;;;;;;;0.57;0.57;;;;;;;;;;4968675;28;20026;-87
2021/12/28 12:04:30;;;;;;;0.50;0.50;;;;;;;;;;4961711;28;20030;-87
2021/12/28 12:07:10;;;;;;;1.58;0.80;;;;;;;;;;4978084;28;20059;-88
2021/12/28 12:10:05;;;;;;;0.88;0.70;;;;;;;;;;4978456;28;20030;-88
2021/12/28 12:12:43;;;;;;;0.70;0.70;;;;;;;;;;4977621;28;20493;-87
2021/12/28 12:15:14;;;;;;;0.65;0.65;;;;;;;;;;4976448;28;20027;-89
2021/12/28 12:17:40;;;;;;;2.47;0.77;;;;;;;;;;4976154;28;20437;-86
2021/12/28 12:20:08;;;;;;;0.60;0.60;;;;;;;;;;4977298;28;20030;-88
2021/12/28 12:22:39;;;;;;;0.73;0.57;;;;;;;;;;4978740;28;20429;-87
2021/12/28 12:25:07;;;;;;;1.25;0.50;;;;;;;;;;4972120;28;20031;-89
2021/12/28 12:27:51;;;;;;;0.50;0.50;;;;;;;;;;4967851;28;20023;-88
2021/12/28 12:30:17;;;;;;;1.63;0.93;;;;;;;;;;4975262;28;20053;-86
2021/12/28 12:33:05;;;;;;;0.70;0.70;;;;;;;;;;4970866;28;20031;-87
2021/12/28 12:35:53;;;;;;;1.42;0.70;;;;;;;;;;4961317;28;20500;-90
2021/12/28 12:38:24;;;;;;;0.52;0.52;;;;;;;;;;4971344;28;20023;-88
2021/12/28 12:40:59;;;;;;;0.55;0.55;;;;;;;;;;4978517;28;20023;-88
2021/12/28 12:43:37;;;;;;;0.63;0.40;;;;;;;;;;4961094;28;20034;-86
2021/12/28 12:46:24;;;;;;;1.52;0.80;;;;;;;;;;4978059;28;20034;-86
2021/12/28 12:48:52;;;;;;;0.57;0.57;;;;;;;;;;4979095;28;20081;-89
2021/12/28 12:51:24;;;;;;;2.10;0.73;;;;;;;;;;4980411;28;20019;-87
2021/12/28 12:54:13;;;;;;;0.50;0.50;;;;;;;;;;4978483;28;20015;-86
2021/12/28 12:56:51;;;;;;;0.60;0.60;;;;;;;;;;4971868;28;20041;-89
2021/12/28 12:59:16;;;;;;;1.30;0.77;;;;;;;;;;4978786;28;20026;-88
2021/12/28 13:01:42;;;;;;;2.05;0.93;;;;;;;;;;4959917;28;20026;-86
2021/12/28 13:04:27;;;;;;;1.00;0.90;;;;;;;;;;4974955;28;20034;-87
2021/12/28 13:07:23;;;;;;;0.88;0.88;;;;;;;;;;4971357;28;20034;-87
2021/12/28 13:10:17;;;;;;;1.38;0.93;;;;;;;;;;4958569;28;20027;-87
2021/12/28 13:12:46;;;;;;;0.85;0.85;;;;;;;;;;4942389;28;20051;-87
2021/12/28 13:15:12;;;;;;;1.60;1.25;;;;;;;;;;4975955;28;20019;-87
2021/12/28 13:17:42;;;;;;;1.08;0.60;;;;;;;;;;4976959;28;20481;-88
2021/12/28 13:20:10;;;;;;;2.40;1.08;;;;;;;;;;4970142;28;20027;-87
2021/12/28 13:22:43;;;;;;;1.38;0.47;;;;;;;;;;4977090;28;20035;-87
2021/12/28 13:25:13;;;;;;;0.68;0.68;;;;;;;;;;4969500;28;20106;-89
2021/12/28 13:27:41;;;;;;;1.23;0.77;;;;;;;;;;4960631;28;20461;-88
2021/12/28 13:30:12;;;;;;;0.60;0.60;;;;;;;;;;4982304;28;20034;-86
2021/12/28 13:32:40;;;;;;;0.95;0.70;;;;;;;;;;4959285;28;20058;-86
2021/12/28 13:35:15;;;;;;;1.02;0.70;;;;;;;;;;4964554;28;20521;-85
2021/12/28 13:38:00;;;;;;;0.90;0.60;;;;;;;;;;4965784;28;20540;-90
2021/12/28 13:40:53;;;;;;;0.90;0.73;;;;;;;;;;4955962;28;20077;-87
2021/12/28 13:43:34;;;;;;;1.27;1.00;;;;;;;;;;4951803;28;20046;-89
2021/12/28 13:46:05;;;;;;;2.97;0.80;;;;;;;;;;4976974;28;20042;-90
2021/12/28 13:48:42;;;;;;;1.38;0.70;;;;;;;;;;4977739;28;20034;-88
2021/12/28 13:51:22;;;;;;;0.57;0.57;;;;;;;;;;4978993;28;20023;-87
2021/12/28 13:53:56;;;;;;;2.50;0.52;;;;;;;;;;4976606;28;20034;-88
2021/12/28 13:56:30;;;;;;;0.50;0.40;;;;;;;;;;4973297;28;20023;-88
2021/12/28 13:58:56;;;;;;;0.52;0.52;;;;;;;;;;4958142;28;20098;-89
2021/12/28 14:01:24;;;;;;;0.73;0.50;;;;;;;;;;4961014;28;20058;-89
2021/12/28 14:04:10;;;;;;;0.70;0.70;;;;;;;;;;4978075;28;20034;-87
2021/12/28 14:06:37;;;;;;;3.67;0.77;;;;;;;;;;4972887;28;20046;-89
2021/12/28 14:09:05;;;;;;;1.10;0.70;;;;;;;;;;4977414;28;20026;-90
2021/12/28 14:11:39;;;;;;;0.70;0.70;;;;;;;;;;4959249;28;20030;-87
2021/12/28 14:14:33;;;;;;;1.13;0.63;;;;;;;;;;4961259;28;20166;-90
2021/12/28 14:17:09;;;;;;;4.13;0.73;;;;;;;;;;4971832;28;20038;-86
2021/12/28 14:19:38;;;;;;;3.13;0.98;;;;;;;;;;4961185;28;20019;-87
2021/12/28 14:22:12;;;;;;;0.60;0.60;;;;;;;;;;4980419;28;20026;-85
2021/12/28 14:24:37;;;;;;;4.53;1.00;;;;;;;;;;4983613;28;20528;-86
2021/12/28 14:27:04;;;;;;;0.60;0.57;;;;;;;;;;4963063;28;20034;-85
2021/12/28 14:29:32;;;;;;;1.77;0.60;;;;;;;;;;4991324;28;20029;-85
2021/12/28 14:32:00;;;;;;;3.90;0.93;;;;;;;;;;4969232;28;20077;-86
2021/12/28 14:34:35;;;;;;;2.35;0.65;;;;;;;;;;4982158;28;20042;-90
2021/12/28 14:37:13;;;;;;;5.30;1.00;;;;;;;;;;4981209;28;20037;-88
2021/12/28 14:39:42;;;;;;;0.75;0.75;;;;;;;;;;4984304;28;20031;-89
2021/12/28 14:42:12;;;;;;;8.68;1.27;;;;;;;;;;4983636;28;20031;-88
2021/12/28 14:44:41;;;;;;;4.70;0.95;;;;;;;;;;4981169;28;20027;-87
2021/12/28 14:47:17;;;;;;;3.08;1.08;;;;;;;;;;4963811;28;20057;-87
2021/12/28 14:49:44;;;;;;;1.98;0.70;;;;;;;;;;4981061;28;20031;-87
2021/12/28 14:52:13;;;;;;;5.70;1.00;;;;;;;;;;4978087;28;20023;-87
2021/12/28 14:54:54;;;;;;;1.83;0.88;;;;;;;;;;4979111;28;20022;-85
2021/12/28 14:57:20;;;;;;;2.27;0.80;;;;;;;;;;4975040;28;20296;-83